createdAt,value
2019-03-15T00:02:06.220Z,80.58
2019-03-15T00:04:34.778Z,79.77
2019-03-15T00:07:03.162Z,79.03
2019-03-15T00:09:31.559Z,78.89
2019-03-15T00:12:02.606Z,79.19
2019-03-15T00:14:31.999Z,79.08
2019-03-15T00:17:00.385Z,78.89
2019-03-15T00:19:31.239Z,79.27
2019-03-15T00:21:59.665Z,79.28
2019-03-15T00:24:28.058Z,79.88
2019-03-15T00:26:58.986Z,79.31
2019-03-15T00:29:27.468Z,79.76
2019-03-15T00:31:55.857Z,80.53
2019-03-15T00:34:28.950Z,81.30
2019-03-15T00:36:57.335Z,79.66
2019-03-15T00:39:25.801Z,79.45
2019-03-15T00:41:54.434Z,78.48
2019-03-15T00:44:23.786Z,78.89
2019-03-15T00:46:52.196Z,78.51
2019-03-15T00:49:23.140Z,79.21
2019-03-15T00:51:51.535Z,79.48
2019-03-15T00:54:19.962Z,79.96
2019-03-15T00:56:48.454Z,80.06
2019-03-15T00:59:16.919Z,80.23
2019-03-15T01:01:47.470Z,80.68
2019-03-15T01:04:16.959Z,81.23
2019-03-15T01:06:49.502Z,81.19
2019-03-15T01:09:17.982Z,81.46
2019-03-15T01:11:46.345Z,81.53
2019-03-15T01:14:14.773Z,81.56
2019-03-15T01:16:43.164Z,80.95
2019-03-15T01:19:11.597Z,81.21
2019-03-15T01:21:42.681Z,80.24
2019-03-15T01:24:11.065Z,79.14
2019-03-15T01:26:39.464Z,79.18
2019-03-15T01:29:07.837Z,79.41
2019-03-15T01:31:36.313Z,80.32
2019-03-15T01:34:04.680Z,80.79
2019-03-15T01:36:34.169Z,80.89
2019-03-15T01:39:02.725Z,80.68
2019-03-15T01:41:31.135Z,80.81
2019-03-15T01:43:59.530Z,80.82
2019-03-15T01:46:27.905Z,80.61
2019-03-15T01:48:56.313Z,80.31
2019-03-15T01:51:24.798Z,80.03
2019-03-15T01:53:53.354Z,80.59
2019-03-15T01:56:22.829Z,80.96
2019-03-15T01:58:51.234Z,81.31
2019-03-15T02:01:19.641Z,81.77
2019-03-15T02:03:51.849Z,82.41
2019-03-15T02:06:22.285Z,82.50
2019-03-15T02:08:50.691Z,82.74
2019-03-15T02:11:19.088Z,83.02
2019-03-15T02:13:50.026Z,83.11
2019-03-15T02:16:17.612Z,83.52
2019-03-15T02:18:46.011Z,83.27
2019-03-15T02:21:14.442Z,83.05
2019-03-15T02:23:43.919Z,82.94
2019-03-15T02:26:12.329Z,82.58
2019-03-15T02:28:40.720Z,82.08
2019-03-15T02:31:09.120Z,81.26
2019-03-15T02:33:37.519Z,80.49
2019-03-15T02:36:05.892Z,79.33
2019-03-15T02:38:35.342Z,78.54
2019-03-15T02:41:05.828Z,78.28
2019-03-15T02:43:34.287Z,77.70
2019-03-15T02:46:02.651Z,76.46
2019-03-15T02:48:31.158Z,75.96
2019-03-15T02:50:59.564Z,75.47
2019-03-15T02:53:27.994Z,76.45
2019-03-15T02:55:56.391Z,75.40
2019-03-15T02:58:28.811Z,74.99
2019-03-15T03:00:56.439Z,75.09
2019-03-15T03:03:24.845Z,75.90
2019-03-15T03:05:55.962Z,75.22
2019-03-15T03:08:29.201Z,74.26
2019-03-15T03:11:00.060Z,74.64
2019-03-15T03:13:28.450Z,74.58
2019-03-15T03:15:56.852Z,74.80
2019-03-15T03:18:25.241Z,74.86
2019-03-15T03:20:53.639Z,75.48
2019-03-15T03:23:26.915Z,75.58
2019-03-15T03:25:55.310Z,76.37
2019-03-15T03:28:24.751Z,76.91
2019-03-15T03:30:53.162Z,77.10
2019-03-15T03:33:21.563Z,77.51
2019-03-15T03:35:49.939Z,77.92
2019-03-15T03:38:19.601Z,78.51
2019-03-15T03:40:48.002Z,78.90
2019-03-15T03:43:16.416Z,78.92
2019-03-15T03:45:44.765Z,79.55
2019-03-15T03:48:15.772Z,80.18
2019-03-15T03:50:44.302Z,80.80
2019-03-15T03:53:12.759Z,81.17
2019-03-15T03:55:42.221Z,81.66
2019-03-15T03:58:10.679Z,81.97
2019-03-15T04:00:39.121Z,82.14
2019-03-15T04:03:07.649Z,81.98
2019-03-15T04:05:36.033Z,81.75
2019-03-15T04:08:04.679Z,81.89
2019-03-15T04:10:36.954Z,82.05
2019-03-15T04:13:06.395Z,82.24
2019-03-15T04:15:34.788Z,82.55
2019-03-15T04:18:06.868Z,82.41
2019-03-15T04:20:35.197Z,82.46
2019-03-15T04:23:05.982Z,82.52
2019-03-15T04:25:34.393Z,82.67
2019-03-15T04:28:02.804Z,82.49
2019-03-15T04:30:33.324Z,82.66
2019-03-15T04:33:02.424Z,82.65
2019-03-15T04:35:30.844Z,82.61
2019-03-15T04:37:59.284Z,82.17
2019-03-15T04:40:27.704Z,82.87
2019-03-15T04:42:56.098Z,82.71
2019-03-15T04:45:28.419Z,82.58
2019-03-15T04:47:56.847Z,82.54
2019-03-15T04:50:25.278Z,82.75
2019-03-15T04:52:53.672Z,82.69
2019-03-15T04:55:22.084Z,82.99
2019-03-15T04:57:50.473Z,82.80
2019-03-15T05:00:18.960Z,82.97
2019-03-15T05:02:48.396Z,83.15
2019-03-15T05:05:16.852Z,83.17
2019-03-15T05:07:48.100Z,83.61
2019-03-15T05:10:19.900Z,83.74
2019-03-15T05:12:48.920Z,83.89
2019-03-15T05:15:18.372Z,83.96
2019-03-15T05:17:47.873Z,84.08
2019-03-15T05:20:16.282Z,84.05
2019-03-15T05:22:44.655Z,84.16
2019-03-15T05:25:13.051Z,84.21
2019-03-15T05:27:41.536Z,83.96
2019-03-15T05:30:11.343Z,83.85
2019-03-15T05:32:39.756Z,83.63
2019-03-15T05:35:08.640Z,83.25
2019-03-15T05:37:37.046Z,83.41
2019-03-15T05:40:07.395Z,83.50
2019-03-15T05:42:35.779Z,83.44
2019-03-15T05:45:06.103Z,83.21
2019-03-15T05:47:34.594Z,83.20
2019-03-15T05:50:03.697Z,83.05
2019-03-15T05:52:33.134Z,83.08
2019-03-15T05:55:01.523Z,83.22
2019-03-15T05:57:29.911Z,83.26
2019-03-15T05:59:58.314Z,82.89
2019-03-15T06:02:26.716Z,82.94
2019-03-15T06:04:55.122Z,82.49
2019-03-15T06:07:23.488Z,82.38
2019-03-15T06:09:51.966Z,82.38
2019-03-15T06:12:22.794Z,82.25
2019-03-15T06:14:51.176Z,82.18
2019-03-15T06:17:19.588Z,82.05
2019-03-15T06:19:47.967Z,81.68
2019-03-15T06:22:16.373Z,81.82
2019-03-15T06:24:45.845Z,81.44
2019-03-15T06:27:14.245Z,81.32
2019-03-15T06:29:42.631Z,81.48
2019-03-15T06:32:11.075Z,81.30
2019-03-15T06:34:41.572Z,81.40
2019-03-15T06:37:09.975Z,81.48
2019-03-15T06:39:41.416Z,81.16
2019-03-15T06:42:12.166Z,81.28
2019-03-15T06:44:39.944Z,81.22
2019-03-15T06:47:12.206Z,81.18
2019-03-15T06:49:40.611Z,81.16
2019-03-15T06:52:08.994Z,81.04
2019-03-15T06:54:37.429Z,81.38
2019-03-15T06:57:06.554Z,81.06
2019-03-15T06:59:35.095Z,80.99
2019-03-15T07:02:20.777Z,80.88
2019-03-15T07:04:55.563Z,80.98
2019-03-15T07:07:23.953Z,81.00
2019-03-15T07:09:52.878Z,81.18
2019-03-15T07:12:21.266Z,81.13
2019-03-15T07:14:51.996Z,81.18
2019-03-15T07:17:20.486Z,81.19
2019-03-15T07:19:48.859Z,80.74
2019-03-15T07:22:20.013Z,80.76
2019-03-15T07:24:48.634Z,80.37
2019-03-15T07:27:17.031Z,80.29
2019-03-15T07:29:45.427Z,80.08
2019-03-15T07:32:13.861Z,79.99
2019-03-15T07:34:42.247Z,80.15
2019-03-15T07:37:10.657Z,79.84
2019-03-15T07:39:39.052Z,79.65
2019-03-15T07:42:07.445Z,79.80
2019-03-15T07:44:39.922Z,79.90
2019-03-15T07:47:08.381Z,80.07
2019-03-15T07:49:39.193Z,80.57
2019-03-15T07:52:07.520Z,79.95
2019-03-15T07:54:38.228Z,79.04
2019-03-15T07:57:06.284Z,78.87
2019-03-15T07:59:39.448Z,78.74
2019-03-15T08:02:07.338Z,78.56
2019-03-15T08:04:36.175Z,78.93
2019-03-15T08:07:04.588Z,79.10
2019-03-15T08:09:32.970Z,78.64
2019-03-15T08:12:01.753Z,78.74
2019-03-15T08:14:30.135Z,78.28
2019-03-15T08:16:58.518Z,78.35
2019-03-15T08:19:26.913Z,78.24
2019-03-15T08:21:56.746Z,78.19
2019-03-15T08:24:25.260Z,77.78
2019-03-15T08:26:53.672Z,77.57
2019-03-15T08:29:22.042Z,77.21
2019-03-15T08:31:50.468Z,77.01
2019-03-15T08:34:18.990Z,77.32
2019-03-15T08:36:47.376Z,77.21
2019-03-15T08:39:17.434Z,76.45
2019-03-15T08:41:45.838Z,76.45
2019-03-15T08:44:14.329Z,75.02
2019-03-15T08:46:42.704Z,75.02
2019-03-15T08:49:11.114Z,73.81
2019-03-15T08:51:39.517Z,74.19
2019-03-15T08:54:07.912Z,74.13
2019-03-15T08:56:36.293Z,73.41
2019-03-15T08:59:04.759Z,72.95
2019-03-15T09:01:33.177Z,72.85
2019-03-15T09:04:01.583Z,72.80
2019-03-15T09:06:30.019Z,71.79
2019-03-15T09:08:58.390Z,72.67
2019-03-15T09:11:26.783Z,71.87
2019-03-15T09:13:55.205Z,72.17
2019-03-15T09:16:24.635Z,71.54
2019-03-15T09:18:55.448Z,71.09
2019-03-15T09:21:23.164Z,71.39
2019-03-15T09:23:51.589Z,70.89
2019-03-15T09:26:20.001Z,70.47
2019-03-15T09:28:48.371Z,70.28
2019-03-15T09:31:16.760Z,70.76
2019-03-15T09:33:45.149Z,70.42
2019-03-15T09:36:13.533Z,69.42
2019-03-15T09:38:41.928Z,70.03
2019-03-15T09:41:14.159Z,69.63
2019-03-15T09:43:45.162Z,69.40
2019-03-15T09:46:12.746Z,69.51
2019-03-15T09:48:43.743Z,69.23
2019-03-15T09:51:11.269Z,69.41
2019-03-15T09:53:39.716Z,68.71
2019-03-15T09:56:08.123Z,68.49
2019-03-15T09:58:36.509Z,69.62
2019-03-15T10:01:05.307Z,69.61
2019-03-15T10:03:34.106Z,69.96
2019-03-15T10:06:14.240Z,70.38
2019-03-15T10:08:35.452Z,69.50
2019-03-15T10:11:04.803Z,69.41
2019-03-15T10:13:33.285Z,68.47
2019-03-15T10:16:02.716Z,68.40
2019-03-15T10:18:35.161Z,68.16
2019-03-15T10:21:02.792Z,69.61
2019-03-15T10:23:31.147Z,69.90
2019-03-15T10:25:59.512Z,69.78
2019-03-15T10:28:27.933Z,70.26
2019-03-15T10:30:56.344Z,70.90
2019-03-15T10:33:24.780Z,70.42
2019-03-15T10:35:55.669Z,73.06
2019-03-15T10:38:26.162Z,73.15
2019-03-15T10:40:54.596Z,73.76
2019-03-15T10:43:24.082Z,73.74
2019-03-15T10:45:52.461Z,73.96
2019-03-15T10:48:25.558Z,74.27
2019-03-15T10:50:51.069Z,73.94
2019-03-15T10:53:22.974Z,73.80
2019-03-15T10:56:00.190Z,74.39
2019-03-15T10:58:20.659Z,74.09
2019-03-15T11:00:49.083Z,74.41
2019-03-15T11:03:17.485Z,74.42
2019-03-15T11:05:45.928Z,74.33
2019-03-15T11:08:14.297Z,75.32
2019-03-15T11:10:42.728Z,75.35
2019-03-15T11:13:11.136Z,75.39
2019-03-15T11:15:39.572Z,76.43
2019-03-15T11:18:07.999Z,77.16
2019-03-15T11:20:36.902Z,77.47
2019-03-15T11:23:05.275Z,77.43
2019-03-15T11:25:33.666Z,77.17
2019-03-15T11:28:02.187Z,77.96
2019-03-15T11:30:31.185Z,78.38
2019-03-15T11:32:59.577Z,78.70
2019-03-15T11:35:27.988Z,78.90
2019-03-15T11:38:02.186Z,79.18
2019-03-15T11:40:38.045Z,80.19
2019-03-15T11:43:06.533Z,80.34
2019-03-15T11:45:34.969Z,80.34
2019-03-15T11:48:04.456Z,80.77
2019-03-15T11:50:33.064Z,80.90
2019-03-15T11:53:02.605Z,81.33
2019-03-15T11:55:32.104Z,81.19
2019-03-15T11:58:01.614Z,81.98
2019-03-15T12:00:30.038Z,82.55
2019-03-15T12:02:58.431Z,82.38
2019-03-15T12:05:26.919Z,82.70
2019-03-15T12:07:55.302Z,82.63
2019-03-15T12:10:23.735Z,82.75
2019-03-15T12:12:54.801Z,82.42
2019-03-15T12:15:23.243Z,82.33
2019-03-15T12:17:51.625Z,82.70
2019-03-15T12:20:24.426Z,83.21
2019-03-15T12:22:52.892Z,83.39
2019-03-15T12:25:21.354Z,83.38
2019-03-15T12:27:49.748Z,83.37
2019-03-15T12:30:18.251Z,83.85
2019-03-15T12:32:46.607Z,83.97
2019-03-15T12:35:17.954Z,83.81
2019-03-15T12:37:47.439Z,84.44
2019-03-15T12:40:16.961Z,84.32
2019-03-15T12:42:47.942Z,84.62
2019-03-15T12:45:16.488Z,84.19
2019-03-15T12:47:49.943Z,84.05
2019-03-15T12:50:22.155Z,84.05
2019-03-15T12:52:50.593Z,84.30
2019-03-15T12:55:18.979Z,84.40
2019-03-15T12:57:49.322Z,84.26
2019-03-15T13:00:21.006Z,84.25
2019-03-15T13:02:53.240Z,84.51
2019-03-15T13:05:21.636Z,84.57
2019-03-15T13:07:50.055Z,84.95
2019-03-15T13:10:23.761Z,84.55
2019-03-15T13:12:55.952Z,84.96
2019-03-15T13:15:24.335Z,85.39
2019-03-15T13:17:52.748Z,85.47
2019-03-15T13:20:23.482Z,85.31
2019-03-15T13:22:51.892Z,85.21
2019-03-15T13:25:20.285Z,85.53
2019-03-15T13:27:48.702Z,85.47
2019-03-15T13:30:22.993Z,85.42
2019-03-15T13:32:51.449Z,85.16
2019-03-15T13:35:19.927Z,85.60
2019-03-15T13:37:50.733Z,85.17
2019-03-15T13:40:20.573Z,85.14
2019-03-15T13:42:49.058Z,84.84
2019-03-15T13:45:17.784Z,83.97
2019-03-15T13:47:46.234Z,83.73
2019-03-15T13:50:18.912Z,83.73
2019-03-15T13:52:47.315Z,83.49
2019-03-15T13:55:15.761Z,83.25
2019-03-15T13:57:47.643Z,83.24
2019-03-15T14:00:22.397Z,83.92
2019-03-15T14:02:55.514Z,82.77
2019-03-15T14:05:26.414Z,82.77
2019-03-15T14:07:54.792Z,80.17
2019-03-15T14:10:23.281Z,79.64
2019-03-15T14:12:51.678Z,78.64
2019-03-15T14:15:20.816Z,78.75
2019-03-15T14:17:49.225Z,78.41
2019-03-15T14:20:20.350Z,76.44
2019-03-15T14:22:49.550Z,75.68
2019-03-15T14:25:23.521Z,75.30
2019-03-15T14:27:52.983Z,75.07
2019-03-15T14:30:25.171Z,74.45
2019-03-15T14:32:54.505Z,73.13
2019-03-15T14:35:23.124Z,74.26
2019-03-15T14:37:52.694Z,72.57
2019-03-15T14:40:23.694Z,71.99
2019-03-15T14:42:52.125Z,72.03
2019-03-15T14:45:20.532Z,70.58
2019-03-15T14:47:48.946Z,70.29
2019-03-15T14:50:17.540Z,69.30
2019-03-15T14:52:45.952Z,70.27
2019-03-15T14:55:16.842Z,68.53
2019-03-15T14:57:52.605Z,69.21
2019-03-15T15:00:20.395Z,69.71
2019-03-15T15:02:48.778Z,65.95
2019-03-15T15:05:17.178Z,66.99
2019-03-15T15:07:46.498Z,65.79
2019-03-15T15:10:16.153Z,66.65
2019-03-15T15:12:44.545Z,67.41
2019-03-15T15:15:15.104Z,67.44
2019-03-15T15:17:43.487Z,67.35
2019-03-15T15:20:12.623Z,66.32
2019-03-15T15:22:41.068Z,64.89
2019-03-15T15:25:14.979Z,65.33
2019-03-15T15:27:43.611Z,65.01
2019-03-15T15:30:13.756Z,64.98
2019-03-15T15:32:42.137Z,65.34
2019-03-15T15:35:15.149Z,64.64
2019-03-15T15:37:46.352Z,65.11
2019-03-15T15:40:19.584Z,65.52
2019-03-15T15:42:48.219Z,64.79
2019-03-15T15:45:16.857Z,65.87
2019-03-15T15:47:45.258Z,66.50
2019-03-15T15:50:15.798Z,65.55
2019-03-15T15:52:44.771Z,65.68
2019-03-15T15:55:15.268Z,65.85
2019-03-15T15:57:43.678Z,66.24
2019-03-15T16:00:19.281Z,65.13
2019-03-15T16:02:47.766Z,64.94
2019-03-15T16:05:19.828Z,65.91
2019-03-15T16:07:48.209Z,65.44
2019-03-15T16:10:18.169Z,65.64
2019-03-15T16:12:50.000Z,67.27
2019-03-15T16:15:19.497Z,66.32
2019-03-15T16:17:48.904Z,66.38
2019-03-15T16:20:17.291Z,65.22
2019-03-15T16:22:45.667Z,65.65
2019-03-15T16:25:17.615Z,66.12
2019-03-15T16:27:46.049Z,64.77
2019-03-15T16:30:19.233Z,65.93
2019-03-15T16:32:49.612Z,66.06
2019-03-15T16:35:18.151Z,65.28
2019-03-15T16:37:46.547Z,66.44
2019-03-15T16:40:17.257Z,66.18
2019-03-15T16:42:45.641Z,67.22
2019-03-15T16:45:27.761Z,66.89
2019-03-15T16:47:59.592Z,65.63
2019-03-15T16:50:27.977Z,65.51
2019-03-15T16:52:56.359Z,67.45
2019-03-15T16:55:24.749Z,66.63
2019-03-15T16:57:57.413Z,65.71
2019-03-15T17:00:25.931Z,66.17
2019-03-15T17:02:54.373Z,65.52
2019-03-15T17:05:22.773Z,65.96
2019-03-15T17:07:53.656Z,66.05
2019-03-15T17:10:22.069Z,66.10
2019-03-15T17:12:55.814Z,66.21
2019-03-15T17:15:28.719Z,66.85
2019-03-15T17:17:57.297Z,68.05
2019-03-15T17:20:25.663Z,67.45
2019-03-15T17:22:54.027Z,68.09
2019-03-15T17:25:24.107Z,67.98
2019-03-15T17:27:52.482Z,68.06
2019-03-15T17:30:20.946Z,69.08
2019-03-15T17:32:50.303Z,68.49
2019-03-15T17:35:20.083Z,68.25
2019-03-15T17:37:48.758Z,68.48
2019-03-15T17:40:21.783Z,66.02
2019-03-15T17:42:50.311Z,65.61
2019-03-15T17:45:18.821Z,65.29
2019-03-15T17:47:47.678Z,65.49
2019-03-15T17:50:27.000Z,66.19
2019-03-15T17:52:56.131Z,67.46
2019-03-15T17:55:25.590Z,66.98
2019-03-15T17:57:59.907Z,66.78
2019-03-15T18:00:45.284Z,69.22
2019-03-15T18:03:21.510Z,72.40
2019-03-15T18:05:46.598Z,73.90
2019-03-15T18:08:18.969Z,74.59
2019-03-15T18:10:48.415Z,75.23
2019-03-15T18:13:16.841Z,74.48
2019-03-15T18:15:45.224Z,73.74
2019-03-15T18:18:14.589Z,73.37
2019-03-15T18:20:43.019Z,73.47
2019-03-15T18:23:11.479Z,72.36
2019-03-15T18:25:40.976Z,72.74
2019-03-15T18:28:09.416Z,72.84
2019-03-15T18:30:37.790Z,72.07
2019-03-15T18:33:07.288Z,71.19
2019-03-15T18:35:35.671Z,70.62
2019-03-15T18:38:04.079Z,69.96
2019-03-15T18:40:36.001Z,69.72
2019-03-15T18:43:08.300Z,69.17
2019-03-15T18:45:36.607Z,68.63
2019-03-15T18:48:07.499Z,69.31
2019-03-15T18:50:35.907Z,68.95
2019-03-15T18:53:04.284Z,69.59
2019-03-15T18:55:32.662Z,68.87
2019-03-15T18:58:01.102Z,68.57
2019-03-15T19:00:29.753Z,68.32
2019-03-15T19:02:59.980Z,67.66
2019-03-15T19:05:28.361Z,68.70
2019-03-15T19:07:57.098Z,68.49
2019-03-15T19:10:26.444Z,68.91
2019-03-15T19:12:58.740Z,68.62
2019-03-15T19:15:27.128Z,68.44
2019-03-15T19:17:55.534Z,67.85
2019-03-15T19:20:24.156Z,67.56
2019-03-15T19:22:56.852Z,67.28
2019-03-15T19:25:25.315Z,66.45
2019-03-15T19:27:53.738Z,66.27
2019-03-15T19:30:22.141Z,67.59
2019-03-15T19:32:54.636Z,66.38
2019-03-15T19:35:22.317Z,66.75
2019-03-15T19:37:50.716Z,66.82
2019-03-15T19:40:22.976Z,67.10
2019-03-15T19:42:55.248Z,66.83
2019-03-15T19:45:23.657Z,66.90
2019-03-15T19:47:52.067Z,67.50
2019-03-15T19:50:21.390Z,68.54
2019-03-15T19:52:49.806Z,70.94
2019-03-15T19:55:18.336Z,70.74
2019-03-15T19:57:46.821Z,71.92
2019-03-15T20:00:16.899Z,70.88
2019-03-15T20:02:45.951Z,70.21
2019-03-15T20:05:14.362Z,69.73
2019-03-15T20:07:42.928Z,69.36
2019-03-15T20:10:16.147Z,69.14
2019-03-15T20:12:43.342Z,68.94
2019-03-15T20:15:16.193Z,68.98
2019-03-15T20:17:44.629Z,68.90
2019-03-15T20:20:23.466Z,69.43
2019-03-15T20:22:53.686Z,68.32
2019-03-15T20:25:22.133Z,69.12
2019-03-15T20:27:50.602Z,68.83
2019-03-15T20:30:26.675Z,68.43
2019-03-15T20:32:56.666Z,69.17
2019-03-15T20:35:25.065Z,68.94
2019-03-15T20:37:53.560Z,68.79
2019-03-15T20:40:21.939Z,68.49
2019-03-15T20:42:52.824Z,68.68
2019-03-15T20:45:29.268Z,68.57
2019-03-15T20:48:01.506Z,69.02
2019-03-15T20:50:29.881Z,69.24
2019-03-15T20:53:08.534Z,69.42
2019-03-15T20:55:29.039Z,69.85
2019-03-15T20:57:57.646Z,69.43
2019-03-15T21:00:35.500Z,69.73
2019-03-15T21:02:56.221Z,69.44
2019-03-15T21:05:24.667Z,70.41
2019-03-15T21:07:54.156Z,70.58
2019-03-15T21:10:22.558Z,70.04
2019-03-15T21:12:53.764Z,69.18
2019-03-15T21:15:22.158Z,69.53
2019-03-15T21:17:50.577Z,69.34
2019-03-15T21:20:22.549Z,69.37
2019-03-15T21:22:50.230Z,69.37
2019-03-15T21:25:18.614Z,69.22
2019-03-15T21:27:53.572Z,69.76
2019-03-15T21:30:20.203Z,69.61
2019-03-15T21:32:52.324Z,69.31
2019-03-15T21:35:20.685Z,69.91
2019-03-15T21:37:49.228Z,69.11
2019-03-15T21:40:19.956Z,70.21
2019-03-15T21:42:49.402Z,69.32
2019-03-15T21:45:17.959Z,68.97
2019-03-15T21:47:46.342Z,68.16
2019-03-15T21:50:24.678Z,68.37
2019-03-15T21:52:54.097Z,68.55
2019-03-15T21:55:22.484Z,68.39
2019-03-15T21:57:51.029Z,67.88
2019-03-15T22:00:20.352Z,68.21
2019-03-15T22:02:48.753Z,67.69
2019-03-15T22:05:17.195Z,68.12
2019-03-15T22:07:45.600Z,67.95
2019-03-15T22:10:15.023Z,69.31
2019-03-15T22:12:43.580Z,68.83
2019-03-15T22:15:13.205Z,69.75
2019-03-15T22:17:45.397Z,69.66
2019-03-15T22:20:17.328Z,70.43
2019-03-15T22:22:46.836Z,70.59
2019-03-15T22:25:17.973Z,70.72
2019-03-15T22:27:49.822Z,70.72
2019-03-15T22:30:16.517Z,70.57
2019-03-15T22:32:44.993Z,70.39
2019-03-15T22:35:13.700Z,70.63
2019-03-15T22:37:42.103Z,70.50
2019-03-15T22:40:12.753Z,70.52
2019-03-15T22:42:41.285Z,70.59
2019-03-15T22:45:11.802Z,70.79
2019-03-15T22:47:40.217Z,71.04
2019-03-15T22:50:10.251Z,70.92
2019-03-15T22:52:41.999Z,70.81
2019-03-15T22:55:11.969Z,70.56
2019-03-15T22:57:41.285Z,70.95
2019-03-15T23:00:23.508Z,70.47
2019-03-15T23:02:52.119Z,70.34
2019-03-15T23:05:20.671Z,70.36
2019-03-15T23:07:49.093Z,69.99
2019-03-15T23:10:17.525Z,70.08
2019-03-15T23:12:45.919Z,70.30
2019-03-15T23:15:14.304Z,69.62
2019-03-15T23:17:42.732Z,69.92
2019-03-15T23:20:14.503Z,69.85
2019-03-15T23:22:42.928Z,69.42
2019-03-15T23:25:11.369Z,69.14
2019-03-15T23:27:39.777Z,69.08
2019-03-15T23:30:17.791Z,69.44
2019-03-15T23:32:46.179Z,69.33
2019-03-15T23:35:14.645Z,69.98
2019-03-15T23:37:43.066Z,69.92
2019-03-15T23:40:14.929Z,70.67
2019-03-15T23:42:48.968Z,71.03
2019-03-15T23:45:17.453Z,71.66
2019-03-15T23:47:45.930Z,71.99
2019-03-15T23:50:15.250Z,71.83
2019-03-15T23:52:44.724Z,72.44
2019-03-15T23:55:13.307Z,72.49
2019-03-15T23:57:41.797Z,72.72
